sensor_id;sensor_type;location;lat;lon;timestamp;P1;durP1;ratioP1;P2;durP2;ratioP2
58878;SDS011;44660;42.664;23.266;2022-08-06T00:00:28;8.57;;;4.80;;
58878;SDS011;44660;42.664;23.266;2022-08-06T00:02:53;7.72;;;5.05;;
58878;SDS011;44660;42.664;23.266;2022-08-06T00:05:19;5.75;;;4.68;;
58878;SDS011;44660;42.664;23.266;2022-08-06T00:07:44;7.47;;;4.55;;
58878;SDS011;44660;42.664;23.266;2022-08-06T00:10:10;8.13;;;4.95;;
58878;SDS011;44660;42.664;23.266;2022-08-06T00:12:35;5.53;;;4.95;;
58878;SDS011;44660;42.664;23.266;2022-08-06T00:15:02;6.45;;;4.80;;
58878;SDS011;44660;42.664;23.266;2022-08-06T00:17:30;6.25;;;5.00;;
58878;SDS011;44660;42.664;23.266;2022-08-06T00:19:55;5.95;;;5.13;;
58878;SDS011;44660;42.664;23.266;2022-08-06T00:22:20;7.47;;;5.15;;
58878;SDS011;44660;42.664;23.266;2022-08-06T00:24:46;5.32;;;4.82;;
58878;SDS011;44660;42.664;23.266;2022-08-06T00:27:11;9.32;;;5.13;;
58878;SDS011;44660;42.664;23.266;2022-08-06T00:29:37;5.50;;;5.00;;
58878;SDS011;44660;42.664;23.266;2022-08-06T00:32:02;5.53;;;4.70;;
58878;SDS011;44660;42.664;23.266;2022-08-06T00:34:28;7.50;;;4.80;;
58878;SDS011;44660;42.664;23.266;2022-08-06T00:36:53;5.53;;;4.32;;
58878;SDS011;44660;42.664;23.266;2022-08-06T00:39:18;5.43;;;4.78;;
58878;SDS011;44660;42.664;23.266;2022-08-06T00:41:44;5.53;;;4.90;;
58878;SDS011;44660;42.664;23.266;2022-08-06T00:44:09;6.80;;;4.90;;
58878;SDS011;44660;42.664;23.266;2022-08-06T00:46:35;8.23;;;4.93;;
58878;SDS011;44660;42.664;23.266;2022-08-06T00:49:01;5.95;;;4.88;;
58878;SDS011;44660;42.664;23.266;2022-08-06T00:51:26;6.72;;;4.80;;
58878;SDS011;44660;42.664;23.266;2022-08-06T00:53:52;5.60;;;5.07;;
58878;SDS011;44660;42.664;23.266;2022-08-06T00:56:18;6.53;;;4.82;;
58878;SDS011;44660;42.664;23.266;2022-08-06T00:58:44;8.10;;;4.90;;
58878;SDS011;44660;42.664;23.266;2022-08-06T01:01:09;5.70;;;5.10;;
58878;SDS011;44660;42.664;23.266;2022-08-06T01:03:36;6.80;;;5.07;;
58878;SDS011;44660;42.664;23.266;2022-08-06T01:06:02;5.55;;;4.93;;
58878;SDS011;44660;42.664;23.266;2022-08-06T01:08:27;7.85;;;4.88;;
58878;SDS011;44660;42.664;23.266;2022-08-06T01:10:53;6.55;;;4.85;;
58878;SDS011;44660;42.664;23.266;2022-08-06T01:13:18;5.55;;;4.80;;
58878;SDS011;44660;42.664;23.266;2022-08-06T01:15:46;7.78;;;4.68;;
58878;SDS011;44660;42.664;23.266;2022-08-06T01:18:22;8.32;;;5.35;;
58878;SDS011;44660;42.664;23.266;2022-08-06T01:29:42;7.85;;;5.43;;
58878;SDS011;44660;42.664;23.266;2022-08-06T01:32:15;6.82;;;5.40;;
58878;SDS011;44660;42.664;23.266;2022-08-06T01:34:55;5.80;;;5.00;;
58878;SDS011;44660;42.664;23.266;2022-08-06T01:37:26;8.55;;;4.97;;
58878;SDS011;44660;42.664;23.266;2022-08-06T01:39:57;8.13;;;5.72;;
58878;SDS011;44660;42.664;23.266;2022-08-06T01:44:53;7.72;;;5.10;;
58878;SDS011;44660;42.664;23.266;2022-08-06T01:47:22;6.63;;;5.03;;
58878;SDS011;44660;42.664;23.266;2022-08-06T01:49:51;6.70;;;5.00;;
58878;SDS011;44660;42.664;23.266;2022-08-06T01:52:20;5.93;;;5.30;;
58878;SDS011;44660;42.664;23.266;2022-08-06T01:54:48;7.53;;;5.32;;
58878;SDS011;44660;42.664;23.266;2022-08-06T01:57:15;8.00;;;5.45;;
58878;SDS011;44660;42.664;23.266;2022-08-06T01:59:45;6.75;;;5.30;;
58878;SDS011;44660;42.664;23.266;2022-08-06T02:02:15;8.63;;;5.45;;
58878;SDS011;44660;42.664;23.266;2022-08-06T02:04:44;6.88;;;4.85;;
58878;SDS011;44660;42.664;23.266;2022-08-06T02:07:11;5.43;;;4.93;;
58878;SDS011;44660;42.664;23.266;2022-08-06T02:09:38;7.75;;;4.95;;
58878;SDS011;44660;42.664;23.266;2022-08-06T02:12:10;5.82;;;4.80;;
58878;SDS011;44660;42.664;23.266;2022-08-06T02:14:39;6.93;;;4.93;;
58878;SDS011;44660;42.664;23.266;2022-08-06T02:17:11;5.72;;;5.05;;
58878;SDS011;44660;42.664;23.266;2022-08-06T02:19:39;6.50;;;5.88;;
58878;SDS011;44660;42.664;23.266;2022-08-06T02:22:10;6.22;;;4.75;;
58878;SDS011;44660;42.664;23.266;2022-08-06T02:24:36;5.70;;;5.07;;
58878;SDS011;44660;42.664;23.266;2022-08-06T02:27:01;7.78;;;5.03;;
58878;SDS011;44660;42.664;23.266;2022-08-06T02:29:28;5.25;;;4.75;;
58878;SDS011;44660;42.664;23.266;2022-08-06T02:31:55;6.95;;;5.10;;
58878;SDS011;44660;42.664;23.266;2022-08-06T02:34:21;6.03;;;5.15;;
58878;SDS011;44660;42.664;23.266;2022-08-06T02:36:52;5.22;;;4.60;;
58878;SDS011;44660;42.664;23.266;2022-08-06T02:39:27;7.72;;;5.28;;
58878;SDS011;44660;42.664;23.266;2022-08-06T02:42:01;5.80;;;4.88;;
58878;SDS011;44660;42.664;23.266;2022-08-06T02:44:45;8.52;;;4.95;;
58878;SDS011;44660;42.664;23.266;2022-08-06T02:47:34;5.45;;;4.93;;
58878;SDS011;44660;42.664;23.266;2022-08-06T02:50:11;8.57;;;4.90;;
58878;SDS011;44660;42.664;23.266;2022-08-06T02:55:18;6.57;;;4.88;;
58878;SDS011;44660;42.664;23.266;2022-08-06T02:57:52;7.82;;;4.85;;
58878;SDS011;44660;42.664;23.266;2022-08-06T03:00:21;8.20;;;5.03;;
58878;SDS011;44660;42.664;23.266;2022-08-06T03:02:48;5.47;;;4.53;;
58878;SDS011;44660;42.664;23.266;2022-08-06T03:05:20;7.05;;;4.93;;
58878;SDS011;44660;42.664;23.266;2022-08-06T03:07:48;7.57;;;4.95;;
58878;SDS011;44660;42.664;23.266;2022-08-06T03:10:17;8.90;;;5.15;;
58878;SDS011;44660;42.664;23.266;2022-08-06T03:12:45;6.60;;;4.78;;
58878;SDS011;44660;42.664;23.266;2022-08-06T03:15:11;5.90;;;4.70;;
58878;SDS011;44660;42.664;23.266;2022-08-06T03:17:39;5.75;;;4.97;;
58878;SDS011;44660;42.664;23.266;2022-08-06T03:20:06;8.13;;;5.28;;
58878;SDS011;44660;42.664;23.266;2022-08-06T03:22:33;6.85;;;4.72;;
58878;SDS011;44660;42.664;23.266;2022-08-06T03:25:01;6.78;;;5.40;;
58878;SDS011;44660;42.664;23.266;2022-08-06T03:27:29;8.07;;;5.20;;
58878;SDS011;44660;42.664;23.266;2022-08-06T03:29:57;6.53;;;4.90;;
58878;SDS011;44660;42.664;23.266;2022-08-06T03:32:23;11.98;;;5.40;;
58878;SDS011;44660;42.664;23.266;2022-08-06T03:34:49;7.50;;;5.03;;
58878;SDS011;44660;42.664;23.266;2022-08-06T03:37:18;8.25;;;4.65;;
58878;SDS011;44660;42.664;23.266;2022-08-06T03:39:44;6.50;;;5.05;;
58878;SDS011;44660;42.664;23.266;2022-08-06T03:42:11;10.95;;;5.07;;
58878;SDS011;44660;42.664;23.266;2022-08-06T03:44:37;10.18;;;4.68;;
58878;SDS011;44660;42.664;23.266;2022-08-06T03:47:07;8.15;;;4.88;;
58878;SDS011;44660;42.664;23.266;2022-08-06T03:49:41;8.05;;;5.55;;
58878;SDS011;44660;42.664;23.266;2022-08-06T03:52:11;8.80;;;5.63;;
58878;SDS011;44660;42.664;23.266;2022-08-06T03:54:42;8.10;;;4.93;;
58878;SDS011;44660;42.664;23.266;2022-08-06T03:57:13;7.38;;;5.10;;
58878;SDS011;44660;42.664;23.266;2022-08-06T03:59:41;7.22;;;5.93;;
58878;SDS011;44660;42.664;23.266;2022-08-06T04:02:09;8.27;;;5.53;;
58878;SDS011;44660;42.664;23.266;2022-08-06T04:04:36;8.77;;;5.68;;
58878;SDS011;44660;42.664;23.266;2022-08-06T04:07:03;8.25;;;5.72;;
58878;SDS011;44660;42.664;23.266;2022-08-06T04:09:31;10.85;;;7.10;;
58878;SDS011;44660;42.664;23.266;2022-08-06T04:11:57;23.20;;;17.38;;
58878;SDS011;44660;42.664;23.266;2022-08-06T04:14:24;44.08;;;28.65;;
58878;SDS011;44660;42.664;23.266;2022-08-06T04:16:50;36.67;;;23.30;;
58878;SDS011;44660;42.664;23.266;2022-08-06T04:19:18;14.10;;;8.52;;
58878;SDS011;44660;42.664;23.266;2022-08-06T04:24:13;8.77;;;6.25;;
58878;SDS011;44660;42.664;23.266;2022-08-06T04:26:40;9.68;;;6.30;;
58878;SDS011;44660;42.664;23.266;2022-08-06T04:29:10;9.50;;;6.03;;
58878;SDS011;44660;42.664;23.266;2022-08-06T04:31:37;7.07;;;6.18;;
58878;SDS011;44660;42.664;23.266;2022-08-06T04:34:04;9.95;;;6.00;;
58878;SDS011;44660;42.664;23.266;2022-08-06T04:36:30;7.22;;;6.07;;
58878;SDS011;44660;42.664;23.266;2022-08-06T04:38:57;8.88;;;5.65;;
58878;SDS011;44660;42.664;23.266;2022-08-06T04:41:23;7.47;;;6.18;;
58878;SDS011;44660;42.664;23.266;2022-08-06T04:43:49;6.78;;;6.18;;
58878;SDS011;44660;42.664;23.266;2022-08-06T04:46:15;9.50;;;6.13;;
58878;SDS011;44660;42.664;23.266;2022-08-06T04:48:41;10.50;;;6.32;;
58878;SDS011;44660;42.664;23.266;2022-08-06T04:51:07;10.60;;;6.38;;
58878;SDS011;44660;42.664;23.266;2022-08-06T04:53:36;8.57;;;6.07;;
58878;SDS011;44660;42.664;23.266;2022-08-06T04:56:06;10.73;;;6.47;;
58878;SDS011;44660;42.664;23.266;2022-08-06T04:58:33;13.30;;;11.32;;
58878;SDS011;44660;42.664;23.266;2022-08-06T05:00:59;14.63;;;9.55;;
58878;SDS011;44660;42.664;23.266;2022-08-06T05:03:25;13.65;;;8.25;;
58878;SDS011;44660;42.664;23.266;2022-08-06T05:06:02;12.20;;;6.72;;
58878;SDS011;44660;42.664;23.266;2022-08-06T05:08:31;11.80;;;6.93;;
58878;SDS011;44660;42.664;23.266;2022-08-06T05:11:02;10.02;;;6.95;;
58878;SDS011;44660;42.664;23.266;2022-08-06T05:13:35;14.13;;;7.22;;
58878;SDS011;44660;42.664;23.266;2022-08-06T05:16:03;13.70;;;7.25;;
58878;SDS011;44660;42.664;23.266;2022-08-06T05:21:20;12.75;;;6.35;;
58878;SDS011;44660;42.664;23.266;2022-08-06T05:23:49;11.52;;;6.40;;
58878;SDS011;44660;42.664;23.266;2022-08-06T05:26:17;8.68;;;6.65;;
58878;SDS011;44660;42.664;23.266;2022-08-06T05:28:43;11.20;;;6.10;;
58878;SDS011;44660;42.664;23.266;2022-08-06T05:31:08;9.95;;;6.35;;
58878;SDS011;44660;42.664;23.266;2022-08-06T05:33:35;11.57;;;7.18;;
58878;SDS011;44660;42.664;23.266;2022-08-06T05:36:03;24.30;;;15.65;;
58878;SDS011;44660;42.664;23.266;2022-08-06T05:38:34;22.42;;;17.10;;
58878;SDS011;44660;42.664;23.266;2022-08-06T05:41:02;13.07;;;10.50;;
58878;SDS011;44660;42.664;23.266;2022-08-06T05:43:29;8.75;;;6.88;;
58878;SDS011;44660;42.664;23.266;2022-08-06T05:45:55;8.05;;;5.97;;
58878;SDS011;44660;42.664;23.266;2022-08-06T05:48:22;15.90;;;6.22;;
58878;SDS011;44660;42.664;23.266;2022-08-06T05:50:50;8.23;;;6.30;;
58878;SDS011;44660;42.664;23.266;2022-08-06T05:53:21;9.07;;;6.20;;
58878;SDS011;44660;42.664;23.266;2022-08-06T05:55:57;7.30;;;5.95;;
58878;SDS011;44660;42.664;23.266;2022-08-06T06:00:56;9.65;;;6.35;;
58878;SDS011;44660;42.664;23.266;2022-08-06T06:03:25;8.10;;;6.20;;
58878;SDS011;44660;42.664;23.266;2022-08-06T06:05:51;9.57;;;5.85;;
58878;SDS011;44660;42.664;23.266;2022-08-06T06:08:19;12.65;;;6.07;;
58878;SDS011;44660;42.664;23.266;2022-08-06T06:10:44;10.45;;;6.00;;
58878;SDS011;44660;42.664;23.266;2022-08-06T06:13:10;5.97;;;5.47;;
58878;SDS011;44660;42.664;23.266;2022-08-06T06:15:38;7.25;;;5.63;;
58878;SDS011;44660;42.664;23.266;2022-08-06T06:23:52;7.60;;;5.97;;
58878;SDS011;44660;42.664;23.266;2022-08-06T06:26:33;10.48;;;6.30;;
58878;SDS011;44660;42.664;23.266;2022-08-06T06:30:04;9.88;;;5.90;;
58878;SDS011;44660;42.664;23.266;2022-08-06T06:37:39;9.65;;;6.07;;
